Weather observations for the past three days for
Perryville Regional Airport
Imperial (Metric)
Date Time (cdt) Wind (mph) Vis. (mi.) Weather Sky Cond. Temperature (ºF) Relative Humidity Wind Chill (°F) Heat Index (°F) Pressure Precipitation (in)
Air Dwpt 6 hour altimeter (in) sea level (mb) 1 hr 3 hr 6 hr
Max. Min.
09 08:35 W 3 10.00 Overcast OVC006 57.9 56.1 94% 29.82 0.0
09 08:15 W 3 10.00 Overcast OVC004 57.4 56.3 96% 29.82 0.0
09 07:55 Calm 10.00 Overcast OVC004 57.2 56.3 97% 29.82 0.0
09 07:35 Calm 10.00 Overcast OVC004 56.7 56.3 99% 29.82 0.0
09 07:15 NW 6 10.00 Overcast OVC002 56.5 56.3 99% 29.82 0.0
09 06:55 Calm 1.00 Fog/Mist OVC002 56.1 55.8 58.1 55.9 99% 29.81 0.0 0.1
09 06:35 W 6 1.25 Fog/Mist OVC002 55.9 55.6 99% 29.81 0.0
09 06:15 W 6 10.00 Overcast OVC004 56.5 55.9 98% 29.8 0.0
09 05:55 SW 3 10.00 Overcast OVC004 56.5 55.8 97% 29.8 0.0
09 05:35 SW 3 10.00 Overcast OVC004 56.5 55.8 97% 29.8 0.0
09 05:15 SW 6 10.00 Overcast OVC004 56.7 55.8 97% 29.8 0.0
09 04:55 S 6 10.00 Overcast OVC004 57 56.1 97% 29.79 0.0
09 04:35 SW 3 10.00 Overcast OVC004 57.2 56.3 97% 29.79 0.0
09 04:15 SW 6 10.00 Overcast OVC004 56.8 56.3 98% 29.78 0.0
09 03:55 Calm 10.00 Overcast OVC004 56.8 56.3 98% 29.78 0.0 0.1
09 03:35 Calm 10.00 Mostly Cloudy BKN004 BKN008 BKN046 56.3 55.9 99% 29.78 0.0
09 03:15 Calm 10.00 Partly Cloudy SCT047 SCT060 56.3 55.8 98% 29.78 0.0
09 02:55 SW 5 10.00 Mostly Cloudy SCT060 BKN075 BKN095 57.2 56.5 97% 29.78 0.0
09 02:35 Calm 10.00 Overcast BKN075 OVC085 57.9 57 97% 29.78 0.0
09 02:15 SE 5 10.00 Light Rain OVC095 58.1 57.2 97% 29.78 0.0
09 01:55 Calm 10.00 Light Drizzle BKN095 OVC110 57.9 57 97% 29.78 0.0 0.1
09 01:35 E 7 10.00 Light Rain SCT055 OVC085 58.1 57.2 97% 29.78 0.0 0.1
09 01:15 E 8 5.00 Heavy Rain SCT034 BKN055 OVC075 58.1 57.2 97% 29.78 0.0 0.08
09 00:55 E 5 4.00 Heavy Rain SCT035 BKN041 OVC075 58.1 56.8 72 58.1 96% 29.81 0.0 0.26 0.3
09 00:35 NE 3 5.00 Heavy Rain SCT041 BKN048 OVC075 58.1 56.8 96% 29.82 0.0 0.16
09 00:15 N 12 7.00 Heavy Rain SCT014 SCT026 OVC060 58.6 56.8 94% 29.82 0.0 0.08
08 23:55 NW 12 G 16 7.00 Heavy Rain SCT013 BKN018 OVC045 60.4 57.2 89% 29.84 0.0 0.03
08 23:35 N 15 G 20 10.00 Overcast SCT011 OVC060 61 57.2 87% 29.81 0.0
08 23:15 N 8 10.00 Overcast BKN060 OVC100 62.2 57.4 84% 29.8 0.0
08 22:55 NE 12 10.00 Overcast SCT060 OVC100 63.5 57 80% 29.77 0.0
08 22:35 N 3 10.00 Overcast OVC100 64.9 54 68% 29.78 0.0
08 22:15 N 3 10.00 Overcast SCT060 OVC110 67.1 52 58% 29.77 0.0
08 21:55 N 12 10.00 Light Rain BKN060 BKN085 BKN120 65.3 55 70% 29.77 0.0
08 21:35 SW 10 10.00 Mostly Cloudy BKN120 67.8 48.9 51% 29.78 0.0
08 21:15 S 14 10.00 Mostly Cloudy BKN120 68.2 48.9 50% 29.77 0.0
08 20:55 S 15 10.00 Mostly Cloudy BKN120 68.4 48.6 49% 29.76 0.0
08 20:35 S 14 10.00 Fair CLR 68.9 48.9 49% 29.76 0.0
08 20:15 S 15 10.00 Fair CLR 68.7 49.3 50% 29.75 0.0
08 19:55 S 14 10.00 Fair CLR 69.4 49.8 50% 29.75 0.0
08 19:35 S 12 10.00 Fair CLR 69.8 50.9 51% 29.76 0.0
08 19:15 S 12 10.00 Fair CLR 70.5 52.5 53% 29.77 0.0
08 18:55 S 13 10.00 Fair CLR 72 52.3 77.7 72 50% 29.77 0.0
08 18:35 S 14 10.00 Fair CLR 73 52.3 48% 29.77 0.0
08 18:15 S 15 10.00 Partly Cloudy SCT120 74.8 52.3 46% 29.77 0.0
08 17:55 S 13 10.00 Fair CLR 75.6 51.6 43% 78 29.78 0.0
08 17:35 S 13 10.00 Fair CLR 76.1 51.8 43% 78 29.78 0.0
08 17:15 SW 13 10.00 Fair CLR 76.5 51.8 42% 78 29.78 0.0
08 16:55 S 10 10.00 Partly Cloudy SCT060 76.1 51.3 42% 78 29.78 0.0
08 16:35 S 15 G 18 10.00 Fair CLR 75.6 52 44% 78 29.79 0.0
08 16:15 S 14 G 18 10.00 Partly Cloudy SCT060 SCT070 76.1 51.4 42% 78 29.79 0.0
08 15:55 S 14 10.00 Partly Cloudy SCT060 76.5 52 43% 78 29.8 0.0
08 15:35 S 15 G 20 10.00 Fair CLR 77 52 42% 78 29.81 0.0
08 15:15 S 15 10.00 Fair CLR 77.4 51.8 41% 78 29.81 0.0
08 14:55 S 14 G 26 10.00 Fair CLR 76.5 51.1 41% 78 29.82 0.0
08 14:35 S 15 G 20 10.00 Fair CLR 76.1 50.7 41% 78 29.83 0.0
08 14:15 S 16 G 24 10.00 Partly Cloudy SCT055 75.6 51.1 42% 78 29.83 0.0
08 13:55 S 12 G 18 10.00 Fair CLR 75.7 50.9 42% 78 29.84 0.0
08 13:35 S 15 G 23 10.00 Fair CLR 75 50.5 42% 78 29.85 0.0
08 13:15 S 13 G 20 10.00 Fair CLR 75.2 50.5 42% 78 29.86 0.0
08 12:55 S 16 G 20 10.00 Fair CLR 74.3 50.5 74.5 50.9 43% 29.86 0.0
08 12:35 S 10 G 20 10.00 Fair CLR 74.3 50.9 44% 29.88 0.0
08 12:15 S 12 10.00 Partly Cloudy SCT120 72.7 50.9 46% 29.9 0.0
08 11:55 S 9 G 14 10.00 Partly Cloudy SCT120 71.8 50.9 48% 29.91 0.0
08 11:35 S 15 10.00 Fair CLR 71.6 51.3 49% 29.91 0.0
08 11:15 S 13 G 16 10.00 Partly Cloudy SCT120 70.9 50 48% 29.92 0.0
08 10:55 S 10 10.00 Partly Cloudy SCT120 69.8 49.8 49% 29.92 0.0
08 10:35 S 13 G 17 10.00 Fair CLR 69.3 49.3 49% 29.93 0.0
08 10:15 SW 13 G 18 10.00 Fair CLR 67.5 48.7 51% 29.93 0.0
08 09:55 SW 16 10.00 Fair CLR 66.9 48.6 52% 29.94 0.0
08 09:35 SW 13 G 17 10.00 Fair CLR 66 49.5 55% 29.94 0.0
08 09:15 S 12 G 17 10.00 Fair CLR 64.4 49.1 58% 29.94 0.0
08 08:55 S 9 10.00 Fair CLR 62.8 48.9 61% 29.95 0.0
08 08:35 S 7 10.00 Fair CLR 61.2 48.6 63% 29.95 0.0
08 08:15 S 9 10.00 Fair CLR 59.9 48.4 66% 29.96 0.0
08 07:55 S 8 10.00 Fair CLR 57.6 47.5 69% 29.96 0.0
08 07:35 S 9 10.00 Fair CLR 55.2 46.6 73% 29.96 0.0
08 07:15 S 5 10.00 Fair CLR 52.7 45.9 78% 29.96 0.0
08 06:55 SE 6 10.00 Fair CLR 50.7 44.6 54.7 48.6 80% 29.96 0.0
08 06:35 SE 5 10.00 Fair CLR 49.3 44.1 82% 48 29.96 0.0
08 06:15 SE 6 10.00 Fair CLR 48.6 43.2 82% 47 29.95 0.0
08 05:55 E 5 10.00 Fair CLR 48.7 42.4 79% 47 29.95 0.0
08 05:35 Calm 10.00 Fair CLR 49.6 42.3 76% 29.95 0.0
08 05:15 Calm 10.00 Fair CLR 49.5 41.9 75% 29.95 0.0
08 04:55 Calm 10.00 Fair CLR 50.9 41.9 71% 29.95 0.0
08 04:35 Calm 10.00 Fair CLR 51.3 41.9 71% 29.95 0.0
08 04:15 SW 5 10.00 Fair CLR 52 41.9 69% 29.95 0.0
08 03:55 SW 8 10.00 Fair CLR 53.4 41.5 64% 29.95 0.0
08 03:35 S 8 10.00 Fair CLR 52.9 41.7 66% 29.95 0.0
08 03:15 S 9 10.00 Fair CLR 53.2 41.5 65% 29.95 0.0
08 02:55 S 10 10.00 Fair CLR 53.8 41.9 64% 29.95 0.0
08 02:35 SW 12 10.00 Fair CLR 54.3 41.9 63% 29.96 0.0
08 02:15 SW 12 10.00 Fair CLR 54.3 41.9 63% 29.96 0.0
08 01:55 SW 13 10.00 Fair CLR 54.7 42.1 63% 29.97 0.0
08 01:35 SW 13 10.00 Fair CLR 54.5 42.3 64% 29.97 0.0
08 01:15 SW 12 10.00 Fair CLR 53.8 42.4 66% 29.97 0.0
08 00:55 SW 10 10.00 Fair CLR 54 42.6 65.8 53.8 66% 29.98 0.0
08 00:35 SW 13 10.00 Fair CLR 54.5 42.4 64% 29.98 0.0
08 00:15 SW 12 10.00 Fair CLR 54 42.8 66% 29.98 0.0
07 23:55 SW 8 10.00 Fair CLR 54.5 42.8 65% 29.98 0.0
07 23:35 S 10 10.00 Fair CLR 54.5 42.8 65% 29.98 0.0
07 23:15 SW 10 10.00 Fair CLR 55 42.4 63% 29.99 0.0
07 22:55 S 10 10.00 Fair CLR 55.2 42.4 62% 29.99 0.0
07 22:35 S 10 10.00 Fair CLR 55.9 42.4 61% 29.98 0.0
07 22:15 S 10 10.00 Fair CLR 56.1 42.3 60% 29.98 0.0
07 21:55 S 10 10.00 Fair CLR 56.3 42.4 60% 29.97 0.0
07 21:35 S 10 10.00 Fair CLR 57.2 42.3 58% 29.97 0.0
07 21:15 S 12 10.00 Fair CLR 58.1 41.9 55% 29.96 0.0
07 20:55 S 10 10.00 Fair CLR 58.3 42.1 55% 29.96 0.0
07 20:35 S 9 10.00 Fair CLR 59 42.1 54% 29.95 0.0
07 20:15 S 10 10.00 Fair CLR 59.7 42.3 53% 29.95 0.0
07 19:55 S 7 10.00 Fair CLR 61 41.5 49% 29.94 0.0
07 19:35 S 5 10.00 Fair CLR 62.8 42.1 47% 29.94 0.0
07 19:15 S 3 10.00 Fair CLR 65.3 40.1 40% 29.94 0.0
07 18:55 SE 6 10.00 Fair CLR 65.7 39 38% 29.93 0.0
07 18:35 SE 9 10.00 Fair CLR 66.2 38.8 37% 29.93 0.0
07 18:15 E 5 10.00 Partly Cloudy SCT085 66.4 38.3 36% 29.94 0.0
07 17:55 S 6 10.00 Partly Cloudy SCT085 68 34.5 29% 29.95 0.0
07 17:35 Calm 10.00 Mostly Cloudy BKN085 67.6 33.8 29% 29.95 0.0
07 17:15 SW 6 10.00 Overcast OVC085 67.3 35.1 30% 29.96 0.0
07 16:55 Calm 10.00 Mostly Cloudy BKN085 67.1 35.1 31% 29.96 0.0
07 16:35 W 3 10.00 Partly Cloudy SCT085 65.5 32.7 30% 29.96 0.0
07 15:15 W 3 10.00 Mostly Cloudy BKN080 65.5 33.8 31% 29.98 0.0
07 14:55 SE 3 10.00 Partly Cloudy SCT080 64.9 34.3 32% 29.99 0.0
07 14:35 W 6 10.00 Partly Cloudy SCT080 64.9 34.7 33% 30 0.0
07 14:15 Calm 10.00 NULL NULL 64.6 33.8 32% 30 0.0
07 10:55 Calm 10.00 Fair CLR 0 0 0% 0 0.0
07 10:35 Calm 10.00 Fair CLR 58.3 35.2 42% 0 0.0
07 10:15 Calm 10.00 Fair CLR 58.1 37.8 47% 30.07 0.0
07 09:55 Calm 10.00 Fair CLR 56.7 41 56% 30.08 0.0
07 09:35 Calm 10.00 Fair CLR 55.4 41.4 59% 30.08 0.0
07 09:15 Calm 10.00 Fair CLR 54.5 41.9 63% 30.08 0.0
07 08:55 SW 3 10.00 Fair CLR 53.1 39.7 61% 30.08 0.0
07 08:35 Calm 10.00 Fair CLR 51.4 40.6 67% 30.08 0.0
07 08:15 Calm 10.00 Fair CLR 50.2 42.8 76% 30.07 0.0
07 07:55 Calm 10.00 Fair CLR 47.7 43.5 86% 30.08 0.0
07 07:35 Calm 10.00 Fair CLR 45.1 42.3 90% 30.08 0.0
07 07:15 SW 3 10.00 Fair CLR 43.7 41.2 91% 30.06 0.0
07 06:55 SW 3 10.00 Fair CLR 42.1 40.3 93% 30.07 0.0
07 06:35 SW 3 10.00 Fair CLR 41 39.6 95% 30.06 0.0
07 06:15 SW 7 10.00 Fair CLR 40.6 39.4 95% 37 30.05 0.0
07 05:55 SW 5 10.00 Fair CLR 40.3 38.7 94% 38 30.05 0.0
07 05:35 SW 3 10.00 Fair CLR 40.8 39.2 94% 30.04 0.0
07 05:15 SW 3 10.00 Fair CLR 41.2 39 92% 30.05 0.0
07 04:55 SW 5 10.00 Fair CLR 41.2 39.2 93% 39 30.05 0.0
07 04:35 Calm 10.00 Fair CLR 0 0 0% 0 0.0
07 04:15 Calm 10.00 Partly Cloudy SCT070 44.4 41.4 89% 30.06 0.0
07 03:55 W 3 10.00 Fair CLR 44.6 41.4 88% 30.05 0.0
07 03:35 W 5 10.00 Fair CLR 44.6 42.1 91% 43 30.06 0.0
07 03:15 W 5 0.00 NULL NULL 0 0 0% 30.04 0.0
06 22:55 W 3 10.00 Fair CLR 47.3 44.6 90% 30.03 0.0
06 22:35 W 3 10.00 Fair CLR 48.6 45 87% 30.03 0.0
06 22:15 W 3 10.00 Fair CLR 49.5 45.9 87% 30.03 0.0
06 21:55 Calm 10.00 Fair CLR 50 46.6 88% 30.02 0.0
06 21:35 Calm 10.00 Fair CLR 51.4 47.1 85% 30.02 0.0
06 21:15 Calm 10.00 Fair CLR 52.9 45.9 77% 30.02 0.0
06 20:55 Calm 10.00 Fair CLR 53.8 45.1 73% 30.01 0.0
06 20:35 N 5 10.00 Fair CLR 54.3 44.4 69% 30 0.0
06 20:15 N 5 10.00 Fair CLR 54.7 43.5 66% 30 0.0
06 19:55 N 5 10.00 Fair CLR 55.8 43.2 63% 30 0.0
06 19:35 N 6 10.00 Fair CLR 57.4 41.5 56% 29.98 0.0
06 19:15 N 6 10.00 Fair CLR 58.5 42.1 55% 29.98 0.0
06 18:55 N 5 10.00 Fair CLR 60.3 40.6 62.4 58.3 49% 29.98 0.0
06 18:35 N 7 10.00 Partly Cloudy SCT060 61 40.3 47% 29.97 0.0
06 18:15 N 7 10.00 Partly Cloudy SCT060 61.7 40.3 45% 29.97 0.0
06 17:55 N 7 10.00 Fair CLR 61.2 39.7 45% 29.98 0.0
06 17:35 NW 7 10.00 Mostly Cloudy BKN070 61.3 39.6 45% 29.98 0.0
06 17:15 NW 9 10.00 Overcast OVC060 61.3 42.3 50% 29.99 0.0
06 16:55 N 7 10.00 Overcast OVC060 60.6 41.2 49% 29.99 0.0
06 16:35 N 5 10.00 Overcast OVC060 60.3 42.6 52% 30 0.0
06 16:15 N 9 10.00 Overcast OVC060 59.5 43.3 55% 30 0.0
06 15:55 N 9 10.00 Mostly Cloudy BKN050 59.9 42.4 53% 30 0.0
06 15:35 N 9 10.00 Fair CLR 61.9 39.6 44% 29.99 0.0
06 15:15 NW 8 10.00 Mostly Cloudy SCT043 SCT060 BKN080 61.7 43.9 52% 30.01 0.0
06 14:55 N 7 10.00 Mostly Cloudy SCT043 BKN060 BKN070 59.9 43.5 55% 30.01 0.0
06 14:35 NW 7 G 10 10.00 Partly Cloudy SCT046 SCT070 SCT080 60.6 45.3 57% 30.01 0.0
06 14:15 N 8 10.00 Fair CLR 60.8 42.3 51% 30 0.0
06 13:55 NW 9 10.00 Partly Cloudy SCT075 60.3 42.1 51% 30 0.0
06 13:35 N 10 10.00 Overcast SCT032 SCT041 OVC075 59.9 44.4 57% 30 0.0
06 13:15 NW 8 10.00 Overcast SCT030 SCT043 OVC075 59.4 46.8 63% 30.01 0.0
06 12:55 W 6 10.00 Overcast OVC075 58.1 46 58.3 48.4 64% 30.01 0.0
06 12:35 NW 6 10.00 Overcast SCT026 OVC075 57.7 45.5 64% 30.02 0.0
06 12:15 W 8 10.00 Overcast SCT026 OVC075 57 47.1 70% 30.02 0.0
06 11:55 NW 7 10.00 Overcast OVC075 55.8 46.2 70% 30.02 0.0
06 11:35 NW 7 10.00 Overcast OVC065 55 45.9 71% 30.02 0.0
06 11:15 NW 7 10.00 Overcast OVC065 54.3 45.9 73% 30.02 0.0
06 10:55 NW 9 10.00 Overcast SCT019 OVC065 54.5 46.9 76% 30.01 0.0
06 10:35 NW 8 10.00 Overcast SCT017 OVC065 54 47.3 78% 30 0.0
06 10:15 N 7 10.00 Overcast OVC065 52.5 47.3 83% 29.99 0.0
06 09:55 NW 8 10.00 Overcast OVC065 51.8 47.3 85% 29.99 0.0
06 09:35 NW 9 10.00 Overcast OVC065 51.1 46.8 85% 30 0.0
06 09:15 NW 12 10.00 Overcast OVC065 50.9 46.6 85% 30 0.0
06 08:55 NW 10 10.00 Overcast OVC065 50.5 46.2 85% 29.98 0.0
Date Time (cdt) Wind (mph) Vis. (mi.) Weather Sky Cond. Air Dwpt Max. Min. Relative Humidity Wind Chill (°F) Heat Index (°F) altimeter (in) sea level (mb) 1 hr 3 hr 6 hr
6 hour
Temperature (ºF) Pressure Precipitation (in)